Time,TemperatureF,DewpointF,PressureIn,WindDirection,WindDirectionDegrees,WindSpeedMPH,WindSpeedGustMPH,Humidity,HourlyPrecipIn,Conditions,Clouds,dailyrainin,SoftwareType,DateUTC
2012-07-09 00:00:00,78.7,68.6,29.94,NW,306,0.0,0.0,71,0.00,,,0.00,VWS V13.01,2012-07-09 05:00:00,
2012-07-09 00:05:00,78.6,68.4,29.94,NW,306,0.0,0.0,71,0.00,,,0.00,VWS V13.01,2012-07-09 05:05:00,
2012-07-09 00:10:00,78.6,68.4,29.94,NW,306,0.0,0.0,71,0.00,,,0.00,VWS V13.01,2012-07-09 05:10:00,
2012-07-09 00:15:00,78.4,68.6,29.94,NW,306,0.0,0.0,72,0.00,,,0.00,VWS V13.01,2012-07-09 05:15:00,
2012-07-09 00:20:00,78.2,68.8,29.94,NNE,28,0.0,0.0,73,0.00,,,0.00,VWS V13.01,2012-07-09 05:20:00,
2012-07-09 00:25:00,77.8,68.9,29.94,NNE,28,0.0,0.0,74,0.00,,,0.00,VWS V13.01,2012-07-09 05:25:00,
2012-07-09 00:30:00,77.8,69.3,29.97,NNE,28,0.0,0.0,75,0.00,,,0.00,VWS V13.01,2012-07-09 05:30:00,
2012-07-09 00:35:00,77.8,69.3,29.97,NNE,29,0.0,0.0,75,0.00,,,0.00,VWS V13.01,2012-07-09 05:35:00,
2012-07-09 00:40:00,77.8,69.3,29.97,NNE,29,0.0,0.0,75,0.00,,,0.00,VWS V13.01,2012-07-09 05:40:00,
2012-07-09 00:45:00,77.7,69.1,29.94,NNE,29,0.0,0.0,75,0.00,,,0.00,VWS V13.01,2012-07-09 05:45:00,
2012-07-09 00:50:00,77.7,69.1,29.94,NNE,29,0.0,0.0,75,0.00,,,0.00,VWS V13.01,2012-07-09 05:50:00,
2012-07-09 00:55:00,77.7,69.9,29.94,NNW,336,0.0,0.0,77,0.00,,,0.00,VWS V13.01,2012-07-09 05:55:00,
2012-07-09 01:00:00,77.8,69.7,29.97,North,359,0.0,0.0,76,0.00,,,0.00,VWS V13.01,2012-07-09 06:00:00,
2012-07-09 01:05:00,78.0,69.5,29.97,NNW,337,0.0,0.0,75,0.00,,,0.00,VWS V13.01,2012-07-09 06:05:00,
2012-07-09 01:10:00,78.0,69.1,29.97,North,7,0.0,0.0,74,0.00,,,0.00,VWS V13.01,2012-07-09 06:10:00,
2012-07-09 01:15:00,78.2,68.8,29.97,NNE,25,2.7,2.7,73,0.00,,,0.00,VWS V13.01,2012-07-09 06:15:00,
2012-07-09 01:20:00,78.4,69.0,29.97,NNE,12,3.1,3.1,73,0.00,,,0.00,VWS V13.01,2012-07-09 06:20:00,
2012-07-09 01:25:00,78.4,68.6,29.97,NNE,13,2.2,2.2,72,0.00,,,0.00,VWS V13.01,2012-07-09 06:25:00,
2012-07-09 01:30:00,78.6,68.8,29.97,NNE,23,0.0,4.0,72,0.00,,,0.00,VWS V13.01,2012-07-09 06:30:00,
2012-07-09 01:35:00,78.6,68.8,29.97,North,353,0.0,0.0,72,0.00,,,0.00,VWS V13.01,2012-07-09 06:35:00,
2012-07-09 01:40:00,78.7,69.0,29.97,NNE,19,2.7,2.7,72,0.00,,,0.00,VWS V13.01,2012-07-09 06:40:00,
2012-07-09 01:45:00,78.9,69.1,29.97,NE,54,2.7,2.7,72,0.00,,,0.00,VWS V13.01,2012-07-09 06:45:00,
2012-07-09 01:50:00,78.9,68.7,29.97,NNE,32,5.4,5.4,71,0.00,,,0.00,VWS V13.01,2012-07-09 06:50:00,
2012-07-09 01:55:00,79.1,68.9,29.97,NE,39,2.7,3.1,71,0.00,,,0.00,VWS V13.01,2012-07-09 06:55:00,
2012-07-09 02:00:00,79.3,68.7,29.97,NNE,19,3.1,3.1,70,0.00,,,0.00,VWS V13.01,2012-07-09 07:00:00,
2012-07-09 02:05:00,79.3,68.2,29.97,NNE,15,3.6,3.6,69,0.00,,,0.00,VWS V13.01,2012-07-09 07:05:00,
2012-07-09 02:10:00,79.3,67.8,29.97,NE,43,2.7,2.7,68,0.00,,,0.00,VWS V13.01,2012-07-09 07:10:00,
2012-07-09 02:15:00,79.3,67.8,29.97,NE,38,0.0,0.0,68,0.00,,,0.00,VWS V13.01,2012-07-09 07:15:00,
2012-07-09 02:20:00,79.3,67.8,29.97,North,8,2.2,3.1,68,0.00,,,0.00,VWS V13.01,2012-07-09 07:20:00,
2012-07-09 02:25:00,79.3,67.8,29.97,North,11,3.1,3.6,68,0.00,,,0.00,VWS V13.01,2012-07-09 07:25:00,
2012-07-09 02:30:00,79.3,67.8,29.94,NNE,26,2.7,3.6,68,0.00,,,0.00,VWS V13.01,2012-07-09 07:30:00,
2012-07-09 02:35:00,79.3,67.8,29.94,NNE,30,0.0,2.7,68,0.00,,,0.00,VWS V13.01,2012-07-09 07:35:00,
2012-07-09 02:40:00,79.1,68.1,29.94,NNE,22,0.0,0.0,69,0.00,,,0.00,VWS V13.01,2012-07-09 07:40:00,
2012-07-09 02:45:00,79.1,68.1,29.97,NE,44,3.6,3.6,69,0.00,,,0.00,VWS V13.01,2012-07-09 07:45:00,
2012-07-09 02:50:00,79.1,68.1,29.97,NE,47,0.0,0.0,69,0.00,,,0.00,VWS V13.01,2012-07-09 07:50:00,
2012-07-09 02:55:00,79.1,68.1,29.97,NE,47,0.0,0.0,69,0.00,,,0.00,VWS V13.01,2012-07-09 07:55:00,
2012-07-09 03:00:00,79.1,68.5,29.97,NE,47,0.0,0.0,70,0.00,,,0.00,VWS V13.01,2012-07-09 08:00:00,
2012-07-09 03:05:00,78.9,68.3,29.97,North,10,0.0,0.0,70,0.00,,,0.00,VWS V13.01,2012-07-09 08:05:00,
2012-07-09 03:10:00,78.9,68.7,29.97,NNE,30,0.0,0.0,71,0.00,,,0.00,VWS V13.01,2012-07-09 08:10:00,
2012-07-09 03:15:00,78.9,68.7,29.94,NE,44,0.0,0.0,71,0.00,,,0.00,VWS V13.01,2012-07-09 08:15:00,
2012-07-09 03:20:00,78.9,68.7,29.94,NNE,31,0.0,0.0,71,0.00,,,0.00,VWS V13.01,2012-07-09 08:20:00,
2012-07-09 03:25:00,78.7,68.6,29.94,NNE,32,0.0,0.0,71,0.00,,,0.00,VWS V13.01,2012-07-09 08:25:00,
2012-07-09 03:30:00,78.7,68.6,29.94,NNE,32,0.0,0.0,71,0.00,,,0.00,VWS V13.01,2012-07-09 08:30:00,
2012-07-09 03:35:00,78.7,68.6,29.94,NNE,32,0.0,0.0,71,0.00,,,0.00,VWS V13.01,2012-07-09 08:35:00,
2012-07-09 03:40:00,78.7,68.6,29.94,NNE,32,0.0,0.0,71,0.00,,,0.00,VWS V13.01,2012-07-09 08:40:00,
2012-07-09 03:45:00,78.6,68.8,29.97,NNE,32,0.0,0.0,72,0.00,,,0.00,VWS V13.01,2012-07-09 08:45:00,
2012-07-09 03:50:00,78.6,68.8,29.97,NNE,32,0.0,0.0,72,0.00,,,0.00,VWS V13.01,2012-07-09 08:50:00,
2012-07-09 03:55:00,78.4,68.6,29.97,NNE,32,0.0,0.0,72,0.00,,,0.00,VWS V13.01,2012-07-09 08:55:00,
2012-07-09 04:00:00,78.4,68.6,29.97,NNE,32,0.0,0.0,72,0.00,,,0.00,VWS V13.01,2012-07-09 09:00:00,
2012-07-09 04:05:00,78.4,68.6,29.97,NNE,32,0.0,0.0,72,0.00,,,0.00,VWS V13.01,2012-07-09 09:05:00,
2012-07-09 04:10:00,78.2,68.8,29.97,NNE,32,0.0,0.0,73,0.00,,,0.00,VWS V13.01,2012-07-09 09:10:00,
2012-07-09 04:15:00,78.2,68.8,29.97,NNE,32,0.0,0.0,73,0.00,,,0.00,VWS V13.01,2012-07-09 09:15:00,
2012-07-09 04:20:00,78.2,68.8,29.97,NNE,32,0.0,0.0,73,0.00,,,0.00,VWS V13.01,2012-07-09 09:20:00,
2012-07-09 04:25:00,78.2,68.8,29.97,NNE,32,0.0,0.0,73,0.00,,,0.00,VWS V13.01,2012-07-09 09:25:00,
2012-07-09 04:30:00,78.2,68.8,29.97,NNE,32,0.0,0.0,73,0.00,,,0.00,VWS V13.01,2012-07-09 09:30:00,
2012-07-09 04:35:00,78.0,68.7,29.97,NNE,32,0.0,0.0,73,0.00,,,0.00,VWS V13.01,2012-07-09 09:35:00,
2012-07-09 04:40:00,78.0,69.1,29.97,NNE,32,0.0,0.0,74,0.00,,,0.00,VWS V13.01,2012-07-09 09:40:00,
2012-07-09 04:45:00,78.0,69.1,29.97,NNE,32,0.0,0.0,74,0.00,,,0.00,VWS V13.01,2012-07-09 09:45:00,
2012-07-09 04:50:00,78.0,69.1,29.97,NNE,32,0.0,0.0,74,0.00,,,0.00,VWS V13.01,2012-07-09 09:50:00,
2012-07-09 04:55:00,78.0,69.1,29.97,NNE,32,0.0,0.0,74,0.00,,,0.00,VWS V13.01,2012-07-09 09:55:00,
2012-07-09 05:00:00,78.0,69.5,29.97,NNE,32,0.0,0.0,75,0.00,,,0.00,VWS V13.01,2012-07-09 10:00:00,
2012-07-09 05:04:00,78.0,69.5,29.97,NNE,32,0.0,0.0,75,0.00,,,0.00,VWS V13.01,2012-07-09 10:04:00,
2012-07-09 05:09:00,78.0,69.5,29.97,NNE,32,0.0,0.0,75,0.00,,,0.00,VWS V13.01,2012-07-09 10:09:00,
2012-07-09 05:14:00,77.8,69.3,29.97,NNE,32,0.0,0.0,75,0.00,,,0.00,VWS V13.01,2012-07-09 10:14:00,
2012-07-09 05:19:00,77.8,69.3,29.97,NNE,32,0.0,0.0,75,0.00,,,0.00,VWS V13.01,2012-07-09 10:19:00,
2012-07-09 05:24:00,78.0,69.5,29.97,NNE,32,0.0,0.0,75,0.00,,,0.00,VWS V13.01,2012-07-09 10:24:00,
2012-07-09 05:29:00,78.0,69.5,29.97,NE,36,0.0,0.0,75,0.00,,,0.00,VWS V13.01,2012-07-09 10:29:00,
2012-07-09 05:34:00,78.0,69.5,29.97,NE,36,0.0,0.0,75,0.00,,,0.00,VWS V13.01,2012-07-09 10:34:00,
2012-07-09 05:39:00,78.0,69.5,29.97,NNE,30,0.0,0.0,75,0.00,,,0.00,VWS V13.01,2012-07-09 10:39:00,
2012-07-09 05:44:00,78.0,69.5,29.97,NNE,32,0.0,0.0,75,0.00,,,0.00,VWS V13.01,2012-07-09 10:44:00,
2012-07-09 05:49:00,78.0,69.5,29.97,NE,39,0.0,0.0,75,0.00,,,0.00,VWS V13.01,2012-07-09 10:49:00,
2012-07-09 05:54:00,78.0,69.5,29.97,NE,39,0.0,0.0,75,0.00,,,0.00,VWS V13.01,2012-07-09 10:54:00,
2012-07-09 05:59:00,77.8,69.3,29.97,NE,39,0.0,0.0,75,0.00,,,0.00,VWS V13.01,2012-07-09 10:59:00,
2012-07-09 06:04:00,77.8,69.3,29.97,NE,38,0.0,0.0,75,0.00,,,0.00,VWS V13.01,2012-07-09 11:04:00,
2012-07-09 06:09:00,77.8,69.3,29.97,North,9,0.0,0.0,75,0.00,,,0.00,VWS V13.01,2012-07-09 11:09:00,
2012-07-09 06:14:00,77.8,69.3,29.97,NNE,28,0.0,0.0,75,0.00,,,0.00,VWS V13.01,2012-07-09 11:14:00,
2012-07-09 06:19:00,77.8,69.7,29.97,NNE,28,0.0,0.0,76,0.00,,,0.00,VWS V13.01,2012-07-09 11:19:00,
2012-07-09 06:24:00,77.7,69.5,29.97,North,10,0.0,0.0,76,0.00,,,0.00,VWS V13.01,2012-07-09 11:24:00,
2012-07-09 06:29:00,77.7,69.5,29.97,North,5,0.0,0.0,76,0.00,,,0.00,VWS V13.01,2012-07-09 11:29:00,
2012-07-09 06:34:00,77.8,69.7,29.97,North,5,0.0,0.0,76,0.00,,,0.00,VWS V13.01,2012-07-09 11:34:00,
2012-07-09 06:39:00,77.8,69.3,29.97,North,5,0.0,0.0,75,0.00,,,0.00,VWS V13.01,2012-07-09 11:39:00,
2012-07-09 06:44:00,77.8,69.3,29.97,North,5,0.0,0.0,75,0.00,,,0.00,VWS V13.01,2012-07-09 11:44:00,
2012-07-09 06:49:00,77.8,69.3,29.97,North,349,0.0,0.0,75,0.00,,,0.00,VWS V13.01,2012-07-09 11:49:00,
2012-07-09 06:54:00,78.0,69.1,29.97,NW,322,0.0,0.0,74,0.00,,,0.00,VWS V13.01,2012-07-09 11:54:00,
2012-07-09 06:59:00,78.0,69.1,29.97,NNE,16,0.0,0.0,74,0.00,,,0.00,VWS V13.01,2012-07-09 11:59:00,
2012-07-09 07:04:00,78.2,68.8,29.97,NNE,25,0.0,0.0,73,0.00,,,0.00,VWS V13.01,2012-07-09 12:04:00,
2012-07-09 07:09:00,78.4,68.6,29.97,NNE,31,2.7,3.1,72,0.00,,,0.00,VWS V13.01,2012-07-09 12:09:00,
2012-07-09 07:14:00,78.4,68.6,29.97,NNE,22,4.0,4.0,72,0.00,,,0.00,VWS V13.01,2012-07-09 12:14:00,
2012-07-09 07:19:00,78.6,68.4,29.97,NE,40,0.0,0.0,71,0.00,,,0.00,VWS V13.01,2012-07-09 12:19:00,
2012-07-09 07:24:00,78.6,68.4,29.97,NE,51,0.0,0.0,71,0.00,,,0.00,VWS V13.01,2012-07-09 12:24:00,
2012-07-09 07:29:00,78.6,68.4,29.97,NE,46,0.0,0.0,71,0.00,,,0.00,VWS V13.01,2012-07-09 12:29:00,
2012-07-09 07:34:00,78.7,68.1,29.97,NE,43,3.1,3.1,70,0.00,,,0.00,VWS V13.01,2012-07-09 12:34:00,
2012-07-09 07:39:00,78.9,68.3,29.97,North,357,2.7,2.7,70,0.00,,,0.00,VWS V13.01,2012-07-09 12:39:00,
2012-07-09 07:44:00,79.1,68.1,29.97,NE,40,3.6,3.6,69,0.00,,,0.00,VWS V13.01,2012-07-09 12:44:00,
2012-07-09 07:49:00,79.3,67.4,29.97,NE,53,2.7,3.1,67,0.00,,,0.00,VWS V13.01,2012-07-09 12:49:00,
2012-07-09 07:54:00,79.5,67.1,29.97,NE,41,3.6,3.6,66,0.00,,,0.00,VWS V13.01,2012-07-09 12:54:00,
2012-07-09 07:59:00,79.6,67.3,29.97,ENE,60,0.0,2.2,66,0.00,,,0.00,VWS V13.01,2012-07-09 12:59:00,
2012-07-09 08:04:00,80.2,66.9,29.97,ENE,57,3.1,3.6,64,0.00,,,0.00,VWS V13.01,2012-07-09 13:04:00,
2012-07-09 08:09:00,80.5,66.8,29.97,NE,38,4.0,4.9,63,0.00,,,0.00,VWS V13.01,2012-07-09 13:09:00,
2012-07-09 08:14:00,80.5,66.3,29.97,North,8,2.2,3.6,62,0.00,,,0.00,VWS V13.01,2012-07-09 13:14:00,
2012-07-09 08:19:00,80.7,66.5,29.97,ENE,74,2.7,4.0,62,0.00,,,0.00,VWS V13.01,2012-07-09 13:19:00,
2012-07-09 08:24:00,81.1,66.4,29.97,East,87,3.1,3.1,61,0.00,,,0.00,VWS V13.01,2012-07-09 13:24:00,
2012-07-09 08:29:00,81.6,65.9,29.97,East,94,2.7,5.4,59,0.00,,,0.00,VWS V13.01,2012-07-09 13:29:00,
2012-07-09 08:34:00,82.2,65.9,29.97,ESE,111,0.0,0.0,58,0.00,,,0.00,VWS V13.01,2012-07-09 13:34:00,
2012-07-09 08:39:00,82.3,65.6,29.97,East,98,5.4,5.4,57,0.00,,,0.00,VWS V13.01,2012-07-09 13:39:00,
2012-07-09 08:44:00,82.7,65.4,29.97,North,7,4.0,4.0,56,0.00,,,0.00,VWS V13.01,2012-07-09 13:44:00,
2012-07-09 08:49:00,82.7,65.4,29.97,NE,54,2.7,3.1,56,0.00,,,0.00,VWS V13.01,2012-07-09 13:49:00,
2012-07-09 08:54:00,82.9,65.6,29.97,ENE,67,0.0,0.0,56,0.00,,,0.00,VWS V13.01,2012-07-09 13:54:00,
2012-07-09 08:59:00,83.4,65.1,29.97,NNW,347,3.1,3.6,54,0.00,,,0.00,VWS V13.01,2012-07-09 13:59:00,
2012-07-09 09:04:00,83.8,65.4,29.97,SSW,202,0.0,0.0,54,0.00,,,0.00,VWS V13.01,2012-07-09 14:04:00,
2012-07-09 09:09:00,84.0,65.6,29.97,NE,46,2.7,4.0,54,0.00,,,0.00,VWS V13.01,2012-07-09 14:09:00,
2012-07-09 09:14:00,84.7,65.7,29.97,North,360,0.0,0.0,53,0.00,,,0.00,VWS V13.01,2012-07-09 14:14:00,
2012-07-09 09:19:00,85.4,64.7,29.97,NE,38,3.1,3.1,50,0.00,,,0.00,VWS V13.01,2012-07-09 14:19:00,
2012-07-09 09:24:00,86.1,65.3,29.97,North,9,3.6,3.6,50,0.00,,,0.00,VWS V13.01,2012-07-09 14:24:00,
2012-07-09 09:29:00,86.3,64.9,29.97,NNW,335,0.0,2.2,49,0.00,,,0.00,VWS V13.01,2012-07-09 14:29:00,
2012-07-09 09:34:00,87.0,65.0,29.97,East,84,0.0,0.0,48,0.00,,,0.00,VWS V13.01,2012-07-09 14:34:00,
2012-07-09 09:39:00,87.2,63.9,29.97,NE,43,4.0,4.0,46,0.00,,,0.00,VWS V13.01,2012-07-09 14:39:00,
2012-07-09 09:44:00,87.4,64.1,29.97,North,353,2.7,2.7,46,0.00,,,0.00,VWS V13.01,2012-07-09 14:44:00,
2012-07-09 09:49:00,87.6,63.6,29.97,NNW,329,2.7,4.9,45,0.00,,,0.00,VWS V13.01,2012-07-09 14:49:00,
2012-07-09 09:54:00,87.4,62.8,29.97,WSW,239,3.1,3.1,44,0.00,,,0.00,VWS V13.01,2012-07-09 14:54:00,
2012-07-09 09:59:00,86.3,63.1,29.97,NNE,26,2.7,3.1,46,0.00,,,0.00,VWS V13.01,2012-07-09 14:59:00,
2012-07-09 10:04:00,87.0,62.5,29.97,ENE,61,0.0,0.0,44,0.00,,,0.00,VWS V13.01,2012-07-09 15:04:00,
2012-07-09 10:09:00,87.0,62.5,29.97,SE,131,3.6,3.6,44,0.00,,,0.00,VWS V13.01,2012-07-09 15:09:00,
2012-07-09 10:14:00,87.4,62.8,29.97,ESE,122,3.6,5.4,44,0.00,,,0.00,VWS V13.01,2012-07-09 15:14:00,
2012-07-09 10:19:00,87.6,63.0,29.97,ESE,116,2.7,2.7,44,0.00,,,0.00,VWS V13.01,2012-07-09 15:19:00,
2012-07-09 10:24:00,88.1,62.8,29.97,East,87,4.9,5.4,43,0.00,,,0.00,VWS V13.01,2012-07-09 15:24:00,
2012-07-09 10:29:00,88.1,62.8,29.97,SE,134,3.6,5.4,43,0.00,,,0.00,VWS V13.01,2012-07-09 15:29:00,
2012-07-09 10:34:00,88.1,62.8,29.97,SSE,162,3.1,4.9,43,0.00,,,0.00,VWS V13.01,2012-07-09 15:34:00,
2012-07-09 10:39:00,88.5,63.1,29.97,SSE,166,5.8,6.3,43,0.00,,,0.00,VWS V13.01,2012-07-09 15:39:00,
2012-07-09 10:44:00,89.7,63.6,29.97,ESE,121,5.4,6.3,42,0.00,,,0.00,VWS V13.01,2012-07-09 15:44:00,
2012-07-09 10:49:00,89.9,63.8,29.94,NNE,21,3.1,5.8,42,0.00,,,0.00,VWS V13.01,2012-07-09 15:49:00,
2012-07-09 10:54:00,90.4,63.5,29.94,NNE,25,5.8,5.8,41,0.00,,,0.00,VWS V13.01,2012-07-09 15:54:00,
2012-07-09 10:59:00,90.8,63.2,29.94,NNE,30,4.0,4.0,40,0.00,,,0.00,VWS V13.01,2012-07-09 15:59:00,
2012-07-09 11:04:00,91.0,63.3,29.94,East,93,4.0,6.3,40,0.00,,,0.00,VWS V13.01,2012-07-09 16:04:00,
2012-07-09 11:09:00,91.0,62.6,29.94,West,274,2.7,2.7,39,0.00,,,0.00,VWS V13.01,2012-07-09 16:09:00,
2012-07-09 11:14:00,91.0,63.3,29.94,East,100,2.7,4.0,40,0.00,,,0.00,VWS V13.01,2012-07-09 16:14:00,
2012-07-09 11:19:00,91.7,63.2,29.97,East,93,3.1,4.9,39,0.00,,,0.00,VWS V13.01,2012-07-09 16:19:00,
2012-07-09 11:24:00,92.6,63.3,29.97,ENE,75,2.7,5.8,38,0.00,,,0.00,VWS V13.01,2012-07-09 16:24:00,
2012-07-09 11:29:00,92.6,63.3,29.97,SSE,150,4.9,6.7,38,0.00,,,0.00,VWS V13.01,2012-07-09 16:29:00,
2012-07-09 11:34:00,92.2,63.0,29.97,East,83,3.1,4.9,38,0.00,,,0.00,VWS V13.01,2012-07-09 16:34:00,
2012-07-09 11:39:00,92.6,62.5,29.97,East,89,4.9,5.8,37,0.00,,,0.00,VWS V13.01,2012-07-09 16:39:00,
2012-07-09 11:44:00,92.8,63.5,29.94,East,83,5.4,5.8,38,0.00,,,0.00,VWS V13.01,2012-07-09 16:44:00,
2012-07-09 11:49:00,92.8,63.5,29.94,East,98,5.8,6.3,38,0.00,,,0.00,VWS V13.01,2012-07-09 16:49:00,
2012-07-09 11:54:00,93.1,63.0,29.94,East,98,4.0,6.3,37,0.00,,,0.00,VWS V13.01,2012-07-09 16:54:00,
2012-07-09 11:59:00,93.0,62.9,29.94,SE,128,7.6,7.6,37,0.00,,,0.00,VWS V13.01,2012-07-09 16:59:00,
2012-07-09 12:04:00,93.9,63.7,29.94,ESE,118,5.4,5.4,37,0.00,,,0.00,VWS V13.01,2012-07-09 17:04:00,
2012-07-09 12:09:00,94.6,63.5,29.94,East,85,3.6,4.9,36,0.00,,,0.00,VWS V13.01,2012-07-09 17:09:00,
2012-07-09 12:14:00,95.1,63.2,29.94,North,5,3.6,6.3,35,0.00,,,0.00,VWS V13.01,2012-07-09 17:14:00,
2012-07-09 12:19:00,94.8,62.0,29.94,NNW,341,4.0,5.4,34,0.00,,,0.00,VWS V13.01,2012-07-09 17:19:00,
2012-07-09 12:24:00,95.1,63.2,29.94,NW,322,3.6,6.3,35,0.00,,,0.00,VWS V13.01,2012-07-09 17:24:00,
2012-07-09 12:29:00,95.3,62.5,29.94,North,3,3.1,4.0,34,0.00,,,0.00,VWS V13.01,2012-07-09 17:29:00,
2012-07-09 12:33:00,95.3,62.5,29.94,ENE,75,7.2,9.6,34,0.00,,,0.00,VWS V13.01,2012-07-09 17:33:00,
2012-07-09 12:38:00,94.9,62.2,29.94,ESE,118,8.3,8.3,34,0.00,,,0.00,VWS V13.01,2012-07-09 17:38:00,
2012-07-09 12:43:00,94.6,61.9,29.94,SSW,193,4.9,5.8,34,0.00,,,0.00,VWS V13.01,2012-07-09 17:43:00,
2012-07-09 12:48:00,94.8,61.2,29.94,East,86,2.2,2.7,33,0.00,,,0.00,VWS V13.01,2012-07-09 17:48:00,
2012-07-09 12:53:00,95.3,61.7,29.94,SSE,154,6.3,6.3,33,0.00,,,0.00,VWS V13.01,2012-07-09 17:53:00,
2012-07-09 12:58:00,95.7,61.1,29.94,ESE,115,5.8,6.3,32,0.00,,,0.00,VWS V13.01,2012-07-09 17:58:00,
2012-07-09 13:03:00,95.7,61.1,29.91,South,179,2.2,2.7,32,0.00,,,0.00,VWS V13.01,2012-07-09 18:03:00,
2012-07-09 13:08:00,96.4,60.8,29.91,South,172,2.7,8.7,31,0.00,,,0.00,VWS V13.01,2012-07-09 18:08:00,
2012-07-09 13:13:00,96.9,60.4,29.91,NW,311,0.0,4.5,30,0.00,,,0.00,VWS V13.01,2012-07-09 18:13:00,
2012-07-09 13:18:00,97.8,61.2,29.91,SW,217,2.2,2.7,30,0.00,,,0.00,VWS V13.01,2012-07-09 18:18:00,
2012-07-09 13:23:00,98.2,60.5,29.91,NE,50,3.1,7.6,29,0.00,,,0.00,VWS V13.01,2012-07-09 18:23:00,
2012-07-09 13:28:00,97.1,59.6,29.91,NE,36,2.7,5.4,29,0.00,,,0.00,VWS V13.01,2012-07-09 18:28:00,
2012-07-09 13:33:00,97.5,59.9,29.91,North,10,6.3,8.3,29,0.00,,,0.00,VWS V13.01,2012-07-09 18:33:00,
2012-07-09 13:38:00,97.1,59.6,29.91,South,172,5.4,5.4,29,0.00,,,0.00,VWS V13.01,2012-07-09 18:38:00,
2012-07-09 13:43:00,96.4,59.0,29.91,ESE,108,5.4,5.4,29,0.00,,,0.00,VWS V13.01,2012-07-09 18:43:00,
2012-07-09 13:48:00,95.8,59.5,29.91,NE,52,4.9,4.9,30,0.00,,,0.00,VWS V13.01,2012-07-09 18:48:00,
2012-07-09 13:53:00,96.2,59.8,29.91,NNW,336,2.2,4.0,30,0.00,,,0.00,VWS V13.01,2012-07-09 18:53:00,
2012-07-09 13:58:00,96.2,60.7,29.91,NNE,14,2.7,6.3,31,0.00,,,0.00,VWS V13.01,2012-07-09 18:58:00,
2012-07-09 14:03:00,95.3,60.8,29.91,NNE,12,3.6,3.6,32,0.00,,,0.00,VWS V13.01,2012-07-09 19:03:00,
2012-07-09 14:08:00,95.1,60.7,29.91,NE,55,5.4,5.4,32,0.00,,,0.00,VWS V13.01,2012-07-09 19:08:00,
2012-07-09 14:13:00,94.9,61.4,29.91,NNE,17,5.8,5.8,33,0.00,,,0.00,VWS V13.01,2012-07-09 19:13:00,
2012-07-09 14:18:00,94.0,62.2,29.91,East,81,4.9,8.7,35,0.00,,,0.00,VWS V13.01,2012-07-09 19:18:00,
2012-07-09 14:23:00,93.7,61.9,29.91,NNE,25,5.8,6.3,35,0.00,,,0.00,VWS V13.01,2012-07-09 19:23:00,
2012-07-09 14:28:00,94.2,62.4,29.91,NNE,22,7.6,7.6,35,0.00,,,0.00,VWS V13.01,2012-07-09 19:28:00,
2012-07-09 14:33:00,94.6,62.7,29.88,North,351,5.8,10.5,35,0.00,,,0.00,VWS V13.01,2012-07-09 19:33:00,
2012-07-09 14:38:00,95.3,62.5,29.88,NE,50,6.3,6.3,34,0.00,,,0.00,VWS V13.01,2012-07-09 19:38:00,
2012-07-09 14:43:00,95.8,62.1,29.88,NNW,344,3.6,4.9,33,0.00,,,0.00,VWS V13.01,2012-07-09 19:43:00,
2012-07-09 14:48:00,96.0,61.4,29.88,North,350,4.9,4.9,32,0.00,,,0.00,VWS V13.01,2012-07-09 19:48:00,
2012-07-09 14:53:00,96.7,61.2,29.88,ENE,68,4.0,4.0,31,0.00,,,0.00,VWS V13.01,2012-07-09 19:53:00,
2012-07-09 14:58:00,96.2,61.6,29.88,NNE,21,0.0,3.1,32,0.00,,,0.00,VWS V13.01,2012-07-09 19:58:00,
2012-07-09 15:03:00,97.1,61.5,29.88,NNE,26,4.0,4.0,31,0.00,,,0.00,VWS V13.01,2012-07-09 20:03:00,
2012-07-09 15:08:00,97.5,61.8,29.88,NNW,343,2.2,2.2,31,0.00,,,0.00,VWS V13.01,2012-07-09 20:08:00,
2012-07-09 15:13:00,98.4,61.6,29.88,NNE,19,3.6,3.6,30,0.00,,,0.00,VWS V13.01,2012-07-09 20:13:00,
2012-07-09 15:18:00,98.9,61.1,29.88,NE,41,0.0,3.1,29,0.00,,,0.00,VWS V13.01,2012-07-09 20:18:00,
2012-07-09 15:23:00,100.0,61.1,29.88,WNW,285,3.1,3.1,28,0.00,,,0.00,VWS V13.01,2012-07-09 20:23:00,
2012-07-09 15:28:00,99.4,60.6,29.88,South,177,5.4,5.4,28,0.00,,,0.00,VWS V13.01,2012-07-09 20:28:00,
2012-07-09 15:33:00,98.2,59.5,29.88,East,94,8.7,8.7,28,0.00,,,0.00,VWS V13.01,2012-07-09 20:33:00,
2012-07-09 15:38:00,97.5,59.9,29.88,SSE,150,4.0,4.0,29,0.00,,,0.00,VWS V13.01,2012-07-09 20:38:00,
2012-07-09 15:43:00,97.6,60.0,29.88,North,10,3.1,3.1,29,0.00,,,0.00,VWS V13.01,2012-07-09 20:43:00,
2012-07-09 15:48:00,97.3,59.7,29.88,NNE,19,2.7,2.7,29,0.00,,,0.00,VWS V13.01,2012-07-09 20:48:00,
2012-07-09 15:53:00,97.1,59.6,29.88,ESE,104,3.6,3.6,29,0.00,,,0.00,VWS V13.01,2012-07-09 20:53:00,
2012-07-09 15:58:00,96.9,61.3,29.88,East,88,8.3,11.0,31,0.00,,,0.00,VWS V13.01,2012-07-09 20:58:00,
2012-07-09 16:03:00,95.1,62.4,29.88,ESE,119,12.8,12.8,34,0.00,,,0.00,VWS V13.01,2012-07-09 21:03:00,
2012-07-09 16:08:00,92.6,63.3,29.88,SE,129,8.1,8.1,38,0.00,,,0.00,VWS V13.01,2012-07-09 21:08:00,
2012-07-09 16:13:00,91.7,63.2,29.88,East,89,5.8,8.7,39,0.00,,,0.00,VWS V13.01,2012-07-09 21:13:00,
2012-07-09 16:18:00,91.2,63.5,29.88,SE,131,6.3,6.3,40,0.00,,,0.00,VWS V13.01,2012-07-09 21:18:00,
2012-07-09 16:23:00,90.3,62.7,29.88,ESE,116,5.4,6.3,40,0.00,,,0.00,VWS V13.01,2012-07-09 21:23:00,
2012-07-09 16:28:00,89.9,63.1,29.88,South,169,8.3,8.3,41,0.00,,,0.00,VWS V13.01,2012-07-09 21:28:00,
2012-07-09 16:33:00,89.5,62.8,29.88,SSE,153,4.5,4.5,41,0.00,,,0.00,VWS V13.01,2012-07-09 21:33:00,
2012-07-09 16:38:00,89.9,63.8,29.88,SSE,150,3.1,3.6,42,0.00,,,0.00,VWS V13.01,2012-07-09 21:38:00,
2012-07-09 16:43:00,90.1,63.9,29.88,ESE,107,4.0,4.0,42,0.00,,,0.00,VWS V13.01,2012-07-09 21:43:00,
2012-07-09 16:48:00,89.9,63.8,29.88,SE,126,2.7,3.6,42,0.00,,,0.00,VWS V13.01,2012-07-09 21:48:00,
2012-07-09 16:53:00,90.3,64.1,29.88,ESE,117,2.2,4.0,42,0.00,,,0.00,VWS V13.01,2012-07-09 21:53:00,
2012-07-09 16:58:00,90.4,64.2,29.88,SSE,161,6.3,6.3,42,0.00,,,0.00,VWS V13.01,2012-07-09 21:58:00,
2012-07-09 17:03:00,90.8,63.9,29.88,ESE,108,10.1,10.1,41,0.00,,,0.00,VWS V13.01,2012-07-09 22:03:00,
2012-07-09 17:08:00,91.2,64.2,29.88,East,80,7.6,7.6,41,0.00,,,0.00,VWS V13.01,2012-07-09 22:08:00,
2012-07-09 17:13:00,91.3,65.1,29.88,ESE,118,6.3,6.3,42,0.00,,,0.00,VWS V13.01,2012-07-09 22:13:00,
2012-07-09 17:18:00,91.2,64.2,29.88,ESE,121,6.3,6.3,41,0.00,,,0.00,VWS V13.01,2012-07-09 22:18:00,
2012-07-09 17:23:00,91.3,64.4,29.88,SSE,147,4.9,5.4,41,0.00,,,0.00,VWS V13.01,2012-07-09 22:23:00,
2012-07-09 17:28:00,90.8,64.6,29.88,SE,136,5.8,5.8,42,0.00,,,0.00,VWS V13.01,2012-07-09 22:28:00,
2012-07-09 17:33:00,90.8,65.2,29.85,ESE,115,5.8,5.8,43,0.00,,,0.00,VWS V13.01,2012-07-09 22:33:00,
2012-07-09 17:38:00,90.8,65.2,29.85,ESE,109,3.1,4.0,43,0.00,,,0.00,VWS V13.01,2012-07-09 22:38:00,
2012-07-09 17:43:00,91.0,64.7,29.85,ESE,120,4.0,4.0,42,0.00,,,0.00,VWS V13.01,2012-07-09 22:43:00,
2012-07-09 17:48:00,91.2,64.9,29.88,ESE,113,3.1,4.0,42,0.00,,,0.00,VWS V13.01,2012-07-09 22:48:00,
2012-07-09 17:53:00,91.2,64.9,29.88,ESE,118,3.6,4.0,42,0.00,,,0.00,VWS V13.01,2012-07-09 22:53:00,
2012-07-09 17:58:00,91.0,64.7,29.88,SE,133,4.5,4.5,42,0.00,,,0.00,VWS V13.01,2012-07-09 22:58:00,
2012-07-09 18:03:00,90.4,65.6,29.88,SE,125,4.9,8.1,44,0.00,,,0.00,VWS V13.01,2012-07-09 23:03:00,
2012-07-09 18:08:00,89.9,65.7,29.88,South,189,0.0,2.7,45,0.00,,,0.00,VWS V13.01,2012-07-09 23:08:00,
2012-07-09 18:13:00,89.9,65.7,29.88,South,182,3.1,4.9,45,0.00,,,0.00,VWS V13.01,2012-07-09 23:13:00,
2012-07-09 18:18:00,89.7,65.6,29.88,NW,324,0.0,2.2,45,0.00,,,0.00,VWS V13.01,2012-07-09 23:18:00,
2012-07-09 18:23:00,89.7,65.6,29.88,WSW,248,2.2,2.7,45,0.00,,,0.00,VWS V13.01,2012-07-09 23:23:00,
2012-07-09 18:28:00,89.5,65.4,29.88,South,172,3.1,3.1,45,0.00,,,0.00,VWS V13.01,2012-07-09 23:28:00,
2012-07-09 18:33:00,89.7,65.6,29.88,South,185,2.7,3.6,45,0.00,,,0.00,VWS V13.01,2012-07-09 23:33:00,
2012-07-09 18:38:00,89.7,65.6,29.88,SSE,163,3.6,4.0,45,0.00,,,0.00,VWS V13.01,2012-07-09 23:38:00,
2012-07-09 18:43:00,90.1,65.2,29.88,ESE,108,0.0,3.1,44,0.00,,,0.00,VWS V13.01,2012-07-09 23:43:00,
2012-07-09 18:48:00,90.3,65.4,29.88,NNW,328,0.0,0.0,44,0.00,,,0.00,VWS V13.01,2012-07-09 23:48:00,
2012-07-09 18:53:00,90.4,65.6,29.88,WSW,257,0.0,0.0,44,0.00,,,0.00,VWS V13.01,2012-07-09 23:53:00,
2012-07-09 18:58:00,90.3,64.8,29.88,SSE,152,5.8,5.8,43,0.00,,,0.00,VWS V13.01,2012-07-09 23:58:00,
2012-07-09 19:03:00,89.9,65.1,29.88,SE,132,2.2,3.6,44,0.00,,,0.00,VWS V13.01,2012-07-10 00:03:00,
2012-07-09 19:08:00,89.7,64.9,29.88,SSE,147,0.0,0.0,44,0.00,,,0.00,VWS V13.01,2012-07-10 00:08:00,
2012-07-09 19:13:00,89.7,64.9,29.88,SE,133,0.0,0.0,44,0.00,,,0.00,VWS V13.01,2012-07-10 00:13:00,
2012-07-09 19:18:00,89.5,64.8,29.88,South,170,3.1,3.6,44,0.00,,,0.00,VWS V13.01,2012-07-10 00:18:00,
2012-07-09 19:23:00,89.4,64.6,29.88,South,170,0.0,0.0,44,0.00,,,0.00,VWS V13.01,2012-07-10 00:23:00,
2012-07-09 19:28:00,89.7,64.9,29.88,South,170,0.0,0.0,44,0.00,,,0.00,VWS V13.01,2012-07-10 00:28:00,
2012-07-09 19:33:00,90.1,65.2,29.88,South,170,0.0,0.0,44,0.00,,,0.00,VWS V13.01,2012-07-10 00:33:00,
2012-07-09 19:38:00,90.1,65.2,29.88,SSE,162,0.0,0.0,44,0.00,,,0.00,VWS V13.01,2012-07-10 00:38:00,
2012-07-09 19:43:00,90.1,64.6,29.88,ESE,105,4.0,4.9,43,0.00,,,0.00,VWS V13.01,2012-07-10 00:43:00,
2012-07-09 19:48:00,89.5,62.8,29.88,East,79,4.0,4.0,41,0.00,,,0.00,VWS V13.01,2012-07-10 00:48:00,
2012-07-09 19:53:00,88.6,62.6,29.88,SE,140,2.7,3.1,42,0.00,,,0.00,VWS V13.01,2012-07-10 00:53:00,
2012-07-09 19:58:00,88.3,62.3,29.88,East,98,0.0,0.0,42,0.00,,,0.00,VWS V13.01,2012-07-10 00:58:00,
2012-07-09 20:03:00,87.9,62.7,29.91,SE,125,3.6,5.4,43,0.00,,,0.00,VWS V13.01,2012-07-10 01:03:00,
2012-07-09 20:08:00,87.7,63.8,29.91,ESE,110,4.0,6.3,45,0.00,,,0.00,VWS V13.01,2012-07-10 01:08:00,
2012-07-09 20:13:00,87.6,64.2,29.91,SE,134,5.4,5.4,46,0.00,,,0.00,VWS V13.01,2012-07-10 01:13:00,
2012-07-09 20:18:00,86.8,65.4,29.91,SSE,151,3.1,5.8,49,0.00,,,0.00,VWS V13.01,2012-07-10 01:18:00,
2012-07-09 20:23:00,86.1,65.9,29.91,SSE,154,0.0,3.6,51,0.00,,,0.00,VWS V13.01,2012-07-10 01:23:00,
2012-07-09 20:27:00,85.4,66.3,29.91,ESE,121,2.7,2.7,53,0.00,,,0.00,VWS V13.01,2012-07-10 01:27:00,
2012-07-09 20:32:00,84.9,66.9,29.91,SE,133,3.1,4.0,55,0.00,,,0.00,VWS V13.01,2012-07-10 01:32:00,
2012-07-09 20:37:00,84.3,67.4,29.91,SE,125,2.7,4.5,57,0.00,,,0.00,VWS V13.01,2012-07-10 01:37:00,
2012-07-09 20:42:00,84.1,67.8,29.91,ESE,109,2.7,2.7,58,0.00,,,0.00,VWS V13.01,2012-07-10 01:42:00,
2012-07-09 20:47:00,83.8,67.9,29.91,East,89,0.0,0.0,59,0.00,,,0.00,VWS V13.01,2012-07-10 01:47:00,
2012-07-09 20:53:00,83.8,68.4,29.91,SE,129,2.7,4.0,60,0.00,,,0.00,VWS V13.01,2012-07-10 01:53:00,
2012-07-09 20:58:00,83.6,68.7,29.91,ESE,110,3.1,3.6,61,0.00,,,0.00,VWS V13.01,2012-07-10 01:58:00,
2012-07-09 21:03:00,83.4,69.0,29.94,ESE,116,5.4,5.4,62,0.00,,,0.00,VWS V13.01,2012-07-10 02:03:00,
2012-07-09 21:08:00,83.2,68.9,29.94,East,92,2.7,4.0,62,0.00,,,0.00,VWS V13.01,2012-07-10 02:08:00,
2012-07-09 21:12:00,83.1,69.2,29.94,ESE,118,3.1,3.6,63,0.00,,,0.00,VWS V13.01,2012-07-10 02:12:00,
2012-07-09 21:17:00,83.1,69.6,29.94,NE,56,4.0,4.0,64,0.00,,,0.00,VWS V13.01,2012-07-10 02:17:00,
2012-07-09 21:22:00,82.9,69.9,29.94,NE,46,4.9,4.9,65,0.00,,,0.00,VWS V13.01,2012-07-10 02:22:00,
2012-07-09 21:27:00,82.9,68.5,29.94,ENE,72,8.1,15.4,62,0.00,,,0.00,VWS V13.01,2012-07-10 02:27:00,
2012-07-09 21:32:00,83.1,66.8,29.94,NE,43,5.8,12.8,58,0.00,,,0.00,VWS V13.01,2012-07-10 02:32:00,
2012-07-09 21:37:00,82.9,65.1,29.94,ENE,77,8.1,10.1,55,0.00,,,0.00,VWS V13.01,2012-07-10 02:37:00,
2012-07-09 21:42:00,82.0,66.7,29.94,ENE,57,4.9,5.8,60,0.00,,,0.00,VWS V13.01,2012-07-10 02:42:00,
2012-07-09 21:47:00,80.9,66.2,29.97,ESE,123,6.3,8.1,61,0.00,,,0.00,VWS V13.01,2012-07-10 02:47:00,
2012-07-09 21:52:00,80.4,67.5,29.97,NNW,337,3.1,6.3,65,0.00,,,0.00,VWS V13.01,2012-07-10 02:52:00,
2012-07-09 21:57:00,78.9,69.5,29.97,NE,48,0.0,3.1,73,0.00,,,0.00,VWS V13.01,2012-07-10 02:57:00,
2012-07-09 22:02:00,77.8,70.1,29.97,NNE,13,0.0,0.0,77,0.00,,,0.00,VWS V13.01,2012-07-10 03:02:00,
2012-07-09 22:07:00,77.5,70.1,29.97,NE,45,0.0,0.0,78,0.00,,,0.00,VWS V13.01,2012-07-10 03:07:00,
2012-07-09 22:12:00,77.1,70.8,29.97,WNW,301,0.0,0.0,81,0.00,,,0.00,VWS V13.01,2012-07-10 03:12:00,
2012-07-09 22:17:00,76.8,70.8,29.97,WNW,301,0.0,0.0,82,0.00,,,0.00,VWS V13.01,2012-07-10 03:17:00,
2012-07-09 22:22:00,76.6,72.1,29.97,NW,305,0.0,0.0,86,0.00,,,0.00,VWS V13.01,2012-07-10 03:22:00,
2012-07-09 22:27:00,76.4,72.6,29.97,WNW,302,0.0,0.0,88,0.00,,,0.00,VWS V13.01,2012-07-10 03:27:00,
2012-07-09 22:32:00,76.2,72.7,29.97,WNW,302,3.1,3.1,89,0.04,,,0.04,VWS V13.01,2012-07-10 03:32:00,
2012-07-09 22:37:00,76.0,72.9,29.97,WNW,299,2.2,2.2,90,0.04,,,0.04,VWS V13.01,2012-07-10 03:37:00,
2012-07-09 22:42:00,76.0,72.9,29.97,West,275,0.0,0.0,90,0.04,,,0.04,VWS V13.01,2012-07-10 03:42:00,
2012-07-09 22:47:00,76.0,73.6,29.97,West,281,0.0,0.0,92,0.04,,,0.04,VWS V13.01,2012-07-10 03:47:00,
2012-07-09 22:52:00,75.7,73.2,29.97,WNW,287,0.0,3.1,92,0.04,,,0.04,VWS V13.01,2012-07-10 03:52:00,
2012-07-09 22:57:00,75.9,73.7,29.97,WSW,258,0.0,2.7,93,0.04,,,0.04,VWS V13.01,2012-07-10 03:57:00,
2012-07-09 23:00:00,75.9,73.7,29.97,WSW,237,0.0,0.0,93,0.04,,,0.04,VWS V13.01,2012-07-10 04:00:00,
2012-07-09 23:05:00,75.9,74.0,29.97,WNW,301,2.2,2.2,94,0.04,,,0.04,VWS V13.01,2012-07-10 04:05:00,
2012-07-09 23:10:00,75.9,74.0,29.97,WSW,248,3.1,3.1,94,0.04,,,0.04,VWS V13.01,2012-07-10 04:10:00,
2012-07-09 23:15:00,75.9,74.0,29.97,WSW,254,0.0,2.2,94,0.04,,,0.04,VWS V13.01,2012-07-10 04:15:00,
2012-07-09 23:20:00,75.9,74.0,29.97,West,260,0.0,0.0,94,0.04,,,0.04,VWS V13.01,2012-07-10 04:20:00,
2012-07-09 23:25:00,76.0,74.5,29.97,West,259,0.0,0.0,95,0.04,,,0.04,VWS V13.01,2012-07-10 04:25:00,
2012-07-09 23:30:00,75.9,73.7,29.97,NW,310,0.0,2.7,93,0.04,,,0.04,VWS V13.01,2012-07-10 04:30:00,
2012-07-09 23:35:00,75.9,74.0,29.97,WNW,296,0.0,0.0,94,0.00,,,0.04,VWS V13.01,2012-07-10 04:35:00,
2012-07-09 23:40:00,75.9,73.7,29.97,WNW,288,0.0,0.0,93,0.00,,,0.04,VWS V13.01,2012-07-10 04:40:00,
2012-07-09 23:45:00,75.9,73.7,29.97,WNW,288,0.0,0.0,93,0.00,,,0.04,VWS V13.01,2012-07-10 04:45:00,
2012-07-09 23:50:00,75.7,73.8,29.97,WNW,290,0.0,0.0,94,0.00,,,0.04,VWS V13.01,2012-07-10 04:50:00,
2012-07-09 23:55:00,75.7,73.5,29.97,WNW,290,0.0,0.0,93,0.00,,,0.04,VWS V13.01,2012-07-10 04:55:00,